Terminal Aerodrome Forecast
Issued by NWS Omaha/Valley, NE

Home | Current Version | Previous Version | Graphics & Text | Print | Product List | Glossary On
Versions: 1 2 3 4 5 6 7 8 9 10 11 12 13 14 15 16 17 18 19
000
FTUS43 KOAX 211455 AAB
TAFOFK
TAF AMD
KOFK 211455Z 2115/2212 19016G24KT P6SM SCT025 BKN040
     FM211600 25013KT P6SM -SHRA VCTS BKN025CB
     FM211700 29014KT P6SM -SHRA VCTS BKN035CB
     FM211800 31015G23KT P6SM BKN045
     FM212200 31010KT P6SM SCT250=

USA.gov is the U.S. government's official web portal to all federal, state and local government web resources and services.